Cocoa Beach, FL (32931)

8:44 AM EST on February 07, 2016 (GMT -0500)
The Weather Reporter | | Change Station
CLOSE
Current Station
Personal Weather Station
Location: Merritt Island, FL
Elevation: 13 ft
Nearby Weather Stations
Active Advisory: Lake Wind Advisory

Elev 13 ft 28.36 °N, 80.66 °W | Updated 26 minutes ago

Clear
Clear
47.2 °F
Feels Like 43 °F
N
9.0
Wind Variable Wind from West

Today
High -- | Low -- °F
--% Chance of Precip.
Yesterday
High -- | Low -- °F
Precip. -- in
Pressure 29.99 in
Visibility 10.0 miles
Clouds Overcast 900 ft
Windchill 43 °F
Dew Point 45 °F
Humidity 92%
Rainfall 0.07 in
Snow Depth Not available.
7:06 AM 6:06 PM
Waning Crescent, 1% visible
METAR KCOF 071258Z AUTO 30019KT 10SM OVC009 08/07 A2997 RMK AO2 PK WND 29028/47 SLP153 T00830069 $
Pressure 29.99 in
Visibility 10.0 miles
Clouds Overcast 900 ft
Windchill 43 °F
Dew Point 45 °F
Humidity 92%
Rainfall 0.07 in
Snow Depth Not available.
7:06 AM 6:06 PM
Waning Crescent, 1% visible
METAR KCOF 071258Z AUTO 30019KT 10SM OVC009 08/07 A2997 RMK AO2 PK WND 29028/47 SLP153 T00830069 $

10-Day Weather Forecast

Almanac

Astronomy

Feb. 07, 2016 Rise Set
Actual Time
Civil Twilight
Nautical Twilight
Astronomical Twilight
Moon
Length of Visible Light
Length of Day
Tomorrow will be .
, % of the Moon is Illuminated

Today's Extremes

State Highs State Lows

Community

WunderPhotos

Upload Photos

1,891,190 photos uploaded!

WunderBlog® & News

Nearby

Air Quality

  Air Quality AQ Index Pollutant
Not available.

Snow Depth

Station Depth Elevation

Earthquake Activity

City Distance Mag. Time & Date
Minimum magnitude displayed is 2.5.

Coastal Water Temperatures

Place Temperature

Stations

Nearby Weather Stations

Station Location Temp. Windchill Dew Point Humidity Wind Precip. Elev Updated Type
                   

Watches & Warnings

Lake Wind Advisory
Issued: 3:47 AM EST Feb. 7, 2016 – National Weather Service

... Lake Wind Advisory in effect until 6 PM EST this evening...

The National Weather Service in Melbourne has issued a lake Wind
Advisory... which is in effect until 6 PM EST this evening.

* Winds... northwest winds around 20 mph today with gusts up to 30
to 35 mph.

* Impacts... choppy conditions on Open Lakes and other larger
bodies of water will make operation of small boats potentially
hazardous.

Precautionary/preparedness actions...

A lake Wind Advisory indicates that winds will cause rough chop
on area lakes. Small boats will be especially prone to capsizing.



Weitlich